Midland, Missouri
Current Conditions -  °F | °C
As of 6:08 AM on Sunday 23 Nov 2014 (Local Time) from KIRK Reporting Station
Moderate Rain Moderate Rain  
Wind Chill: 51°   Ceiling: 600
Heat Index: 51°   Visibility: 2mi
Dew Point: 50°   Wind: 9mph
Humidity: 96%   Direction: 160°SSE
Pressure: 29.61"   Gusts: NA
Location:  40.2969°N, 92.7524°W
Report Text: KIRK 231208Z AUTO 16008KT 2SM RA BR OVC006 11/10 A2961 RMK AO2 CIG 004V009 P0004 T01060100
Loading
Personal Weather Stations






























Interactive Weather Map New forecast layout! Learn more

10-Day Weather Forecast

Advertisements
Track Severe Weather on mobile